Date,TemperatureHighF,TemperatureAvgF,TemperatureLowF,DewpointHighF,DewpointAvgF,DewpointLowF,HumidityHigh,HumidityAvg,HumidityLow,PressureMaxIn,PressureMinIn,WindSpeedMaxMPH,WindSpeedAvgMPH,GustSpeedMaxMPH,PrecipitationSumIn
2013-1-1,31.9,27.0,15.9,0.0,0.0,0.0,0,0,100,0.00,0.00,12,3,12,0.00
2013-1-2,26.1,17.1,9.7,0.0,0.0,0.0,0,0,100,0.00,0.00,6,0,6,0.00
2013-1-3,31.2,20.5,6.6,0.0,0.0,0.0,0,0,100,0.00,0.00,20,3,21,0.02
2013-1-4,31.7,27.2,21.6,0.0,0.0,0.0,0,0,100,0.00,0.00,19,6,21,0.00
2013-1-5,40.1,28.3,16.7,0.0,0.0,0.0,0,0,100,0.00,0.00,14,3,14,0.00
2013-1-6,37.6,32.5,26.0,0.0,0.0,0.0,0,0,100,0.00,0.00,19,5,22,0.00
2013-1-7,36.4,29.4,22.1,0.0,0.0,0.0,0,0,100,0.00,0.00,11,2,11,0.00
2013-1-8,45.7,32.0,18.4,0.0,0.0,0.0,0,0,100,0.00,0.00,10,2,11,0.00
2013-1-9,47.3,39.4,32.0,0.0,0.0,0.0,0,0,100,0.00,0.00,18,4,18,0.06
2013-1-10,39.9,34.2,26.3,0.0,0.0,0.0,0,0,100,0.00,0.00,15,5,16,0.00
2013-1-11,60.3,50.0,39.9,0.0,0.0,0.0,0,0,100,0.00,0.00,22,6,23,0.24
2013-1-12,63.8,58.1,50.9,0.0,0.0,0.0,0,0,100,0.00,0.00,16,6,17,0.00
2013-1-13,63.0,57.1,37.3,0.0,0.0,0.0,0,0,100,0.00,0.00,28,8,32,0.60
2013-1-14,37.4,29.0,23.9,0.0,0.0,0.0,0,0,100,0.00,0.00,16,4,16,0.00
2013-1-15,33.6,27.9,22.7,0.0,0.0,0.0,0,0,100,0.00,0.00,12,3,12,0.00
2013-1-16,35.7,31.7,30.0,0.0,0.0,0.0,0,0,100,0.00,0.00,15,4,16,0.00
2013-1-17,37.4,32.3,24.0,0.0,0.0,0.0,0,0,100,0.00,0.00,19,3,21,0.00
2013-1-18,34.7,25.8,15.7,0.0,0.0,0.0,0,0,100,0.00,0.00,22,5,22,0.00
2013-1-19,51.5,41.8,32.7,0.0,0.0,0.0,0,0,100,0.00,0.00,31,11,32,0.00
2013-1-20,43.1,30.6,22.4,0.0,0.0,0.0,0,0,100,0.00,0.00,29,7,34,1.36
2013-1-21,23.0,18.6,8.7,0.0,0.0,0.0,0,0,100,0.00,0.00,23,5,25,0.50
2013-1-22,14.4,9.3,4.7,0.0,0.0,0.0,0,0,100,0.00,0.00,17,3,19,0.00
2013-1-23,21.1,14.3,7.6,0.0,0.0,0.0,0,0,100,0.00,0.00,15,2,16,0.00
2013-1-24,20.5,15.7,11.6,0.0,0.0,0.0,0,0,100,0.00,0.00,21,4,23,0.00
2013-1-25,24.7,18.8,15.0,0.0,0.0,0.0,0,0,100,0.00,0.00,11,2,12,0.00
2013-1-26,28.9,24.0,14.6,0.0,0.0,0.0,0,0,100,0.00,0.00,14,3,14,0.00
2013-1-27,37.1,24.0,10.3,0.0,0.0,0.0,0,0,100,0.00,0.00,14,3,14,0.02
2013-1-28,49.0,42.6,31.4,0.0,0.0,0.0,0,0,100,0.00,0.00,19,6,20,0.20
2013-1-29,62.0,55.1,48.2,0.0,0.0,0.0,0,0,100,0.00,0.00,20,6,22,0.00
2013-1-30,63.0,54.4,33.8,0.0,0.0,0.0,0,0,100,0.00,0.00,36,10,36,2.10
2013-1-31,33.7,25.1,18.3,0.0,0.0,0.0,0,0,100,0.00,0.00,33,8,34,0.00
2013-2-1,18.2,11.6,6.4,0.0,0.0,0.0,0,0,100,0.00,0.00,20,4,22,0.16
2013-2-2,27.0,19.6,6.9,0.0,0.0,0.0,0,0,100,0.00,0.00,16,3,17,0.00
2013-2-3,24.9,21.1,16.4,0.0,0.0,0.0,0,0,100,0.00,0.00,20,2,21,0.00
2013-2-4,30.5,23.0,12.4,0.0,0.0,0.0,0,0,100,0.00,0.00,14,2,14,0.00
2013-2-5,31.9,28.6,25.5,0.0,0.0,0.0,0,0,100,0.00,0.00,10,2,11,0.00
2013-2-6,35.8,29.4,21.4,0.0,0.0,0.0,0,0,100,0.00,0.00,14,3,14,0.00
2013-2-7,46.6,35.1,22.8,0.0,0.0,0.0,0,0,100,0.00,0.00,12,5,13,0.00
2013-2-8,44.2,33.5,24.8,0.0,0.0,0.0,0,0,100,0.00,0.00,30,9,30,0.18
2013-2-9,36.5,26.8,17.1,0.0,0.0,0.0,0,0,100,0.00,0.00,16,2,17,0.00
2013-2-10,47.0,37.2,24.7,0.0,0.0,0.0,0,0,100,0.00,0.00,20,5,22,0.00
2013-2-11,52.4,44.5,36.8,0.0,0.0,0.0,0,0,100,0.00,0.00,33,10,33,3.62
2013-2-12,45.5,36.4,30.5,0.0,0.0,0.0,0,0,100,0.00,0.00,23,5,26,0.90
2013-2-13,32.1,29.0,23.9,0.0,0.0,0.0,0,0,100,0.00,0.00,11,2,11,0.00
2013-2-14,43.4,34.0,24.1,0.0,0.0,0.0,0,0,100,0.00,0.00,19,6,21,0.00
2013-2-15,37.8,30.6,25.2,0.0,0.0,0.0,0,0,100,0.00,0.00,15,3,16,0.00
2013-2-16,30.5,22.5,14.8,0.0,0.0,0.0,0,0,100,0.00,0.00,19,3,20,0.00
2013-2-17,25.7,17.6,13.1,0.0,0.0,0.0,0,0,100,0.00,0.00,15,3,16,0.00
2013-2-18,51.5,33.5,14.1,0.0,0.0,0.0,0,0,100,0.00,0.00,24,6,24,0.00
2013-2-19,48.8,31.2,19.9,0.0,0.0,0.0,0,0,100,0.00,0.00,27,9,31,0.18
2013-2-20,22.0,19.4,15.9,0.0,0.0,0.0,0,0,100,0.00,0.00,23,5,24,0.00
2013-2-21,28.5,22.9,19.3,0.0,0.0,0.0,0,0,100,0.00,0.00,14,4,15,0.00
2013-2-22,42.2,33.0,24.0,0.0,0.0,0.0,0,0,100,0.00,0.00,22,6,23,0.00
2013-2-23,41.9,35.5,28.9,0.0,0.0,0.0,0,0,100,0.00,0.00,14,3,16,0.00
2013-2-24,36.7,29.4,25.4,0.0,0.0,0.0,0,0,100,0.00,0.00,13,3,14,0.00
2013-2-25,44.2,32.8,19.9,0.0,0.0,0.0,0,0,100,0.00,0.00,14,4,16,0.00
2013-2-26,41.8,36.4,32.3,0.0,0.0,0.0,0,0,100,0.00,0.00,26,10,30,0.46
2013-2-27,41.8,36.9,32.2,0.0,0.0,0.0,0,0,100,0.00,0.00,23,8,25,0.24
2013-2-28,35.4,32.7,30.5,0.0,0.0,0.0,0,0,100,0.00,0.00,16,6,19,0.02
2013-3-1,32.7,29.7,25.7,0.0,0.0,0.0,0,0,100,0.00,0.00,14,6,16,0.00
2013-3-2,30.0,25.9,24.2,0.0,0.0,0.0,0,0,100,0.00,0.00,16,5,17,0.00
2013-3-3,28.6,23.9,19.2,0.0,0.0,0.0,0,0,100,0.00,0.00,13,3,15,0.00
2013-3-4,41.8,27.8,14.9,0.0,0.0,0.0,0,0,100,0.00,0.00,11,1,11,0.00
2013-3-5,39.8,34.1,29.5,0.0,0.0,0.0,0,0,100,0.00,0.00,17,7,17,0.00
2013-3-6,40.8,34.2,31.3,0.0,0.0,0.0,0,0,100,0.00,0.00,14,3,14,0.00
2013-3-7,41.0,34.6,30.3,0.0,0.0,0.0,0,0,100,0.00,0.00,12,4,13,0.00
2013-3-8,45.7,34.9,26.0,0.0,0.0,0.0,0,0,100,0.00,0.00,11,3,12,0.00
2013-3-9,57.3,41.2,26.9,0.0,0.0,0.0,0,0,100,0.00,0.00,12,4,13,0.00
2013-3-10,71.2,57.4,45.2,0.0,0.0,0.0,0,0,100,0.00,40.00,19,5,19,0.00
2013-3-11,60.5,51.5,40.4,0.0,0.0,0.0,0,0,100,0.00,0.00,27,6,28,0.40
2013-3-12,40.4,35.8,30.4,0.0,0.0,0.0,0,0,100,0.00,0.00,18,5,20,0.00
2013-3-13,32.1,29.2,25.7,0.0,0.0,0.0,0,0,100,0.00,0.00,26,6,27,0.14
2013-3-14,40.9,30.0,20.3,0.0,0.0,0.0,0,0,100,0.00,0.00,18,3,19,0.00
2013-3-15,49.8,38.3,27.0,0.0,0.0,0.0,0,0,100,0.00,0.00,14,3,15,0.08
2013-3-16,53.3,41.2,30.4,0.0,0.0,0.0,0,0,100,0.00,0.00,22,6,22,0.06
2013-3-17,40.5,33.5,30.3,0.0,0.0,0.0,0,0,100,0.00,0.00,17,5,18,0.00
2013-3-18,49.1,39.0,30.5,0.0,0.0,0.0,0,0,100,0.00,0.00,22,7,22,0.18
2013-3-19,40.0,34.0,28.4,0.0,0.0,0.0,0,0,100,0.00,0.00,30,8,32,2.04
2013-3-20,36.8,29.9,21.8,0.0,0.0,0.0,0,0,100,0.00,0.00,26,6,26,0.62
2013-3-21,31.7,23.6,17.5,0.0,0.0,0.0,0,0,100,0.00,0.00,16,4,17,0.00
2013-3-22,42.0,29.9,20.1,0.0,0.0,0.0,0,0,100,0.00,0.00,18,3,21,0.00
2013-3-23,47.8,34.2,22.5,0.0,0.0,0.0,0,0,100,0.00,0.00,13,2,13,0.00
2013-3-24,37.1,32.6,29.2,0.0,0.0,0.0,0,0,100,0.00,0.00,20,8,20,0.00
2013-3-25,36.4,33.0,31.2,0.0,0.0,0.0,0,0,100,0.00,0.00,17,3,18,0.00
2013-3-26,41.2,35.0,31.1,0.0,0.0,0.0,0,0,100,0.00,0.00,17,6,18,0.00
2013-3-27,43.4,36.4,31.5,0.0,0.0,0.0,0,0,100,0.00,0.00,21,6,25,0.00
2013-3-28,50.6,37.5,27.0,0.0,0.0,0.0,0,0,100,0.00,0.00,17,4,19,0.00
2013-3-29,54.2,40.0,26.5,0.0,0.0,0.0,0,0,100,0.00,0.00,14,2,15,0.00
2013-3-30,58.8,43.1,26.6,0.0,0.0,0.0,0,0,100,0.00,0.00,12,2,13,0.00
2013-3-31,54.3,46.6,41.1,0.0,0.0,0.0,0,0,100,0.00,0.00,16,4,17,0.08
2013-4-1,47.5,39.0,30.3,0.0,0.0,0.0,0,0,100,0.00,0.00,22,7,22,0.00
2013-4-2,43.6,32.7,21.1,0.0,0.0,0.0,0,0,100,0.00,0.00,19,4,20,0.00
2013-4-3,45.3,33.1,22.0,0.0,0.0,0.0,0,0,100,0.00,0.00,19,4,20,0.00
2013-4-4,55.2,39.1,26.6,0.0,0.0,0.0,0,0,100,0.00,0.00,12,4,12,0.00
2013-4-5,56.5,42.9,30.1,0.0,0.0,0.0,0,0,100,0.00,0.00,18,4,19,0.00
2013-4-6,61.6,45.1,29.6,0.0,0.0,0.0,0,0,100,0.00,0.00,14,6,15,0.00
2013-4-7,72.8,62.3,52.5,0.0,0.0,0.0,0,0,100,0.00,0.00,26,8,28,0.00
2013-4-8,73.2,61.8,50.1,0.0,0.0,0.0,0,0,100,0.00,0.00,27,7,27,0.00
2013-4-9,81.3,67.2,51.5,0.0,0.0,0.0,0,0,100,0.00,0.00,27,6,27,0.00
2013-4-10,81.5,69.0,58.7,0.0,0.0,0.0,0,0,100,0.00,0.00,28,8,28,0.32
2013-4-11,67.9,60.3,55.6,0.0,0.0,0.0,0,0,100,0.00,0.00,16,4,17,0.42
2013-4-12,58.4,48.1,41.7,0.0,0.0,0.0,0,0,100,0.00,0.00,25,6,25,0.26
2013-4-13,52.2,43.3,34.6,0.0,0.0,0.0,0,0,100,0.00,0.00,20,5,22,0.00
2013-4-14,66.7,49.3,32.2,0.0,0.0,0.0,0,0,100,0.00,0.00,13,4,13,0.00
2013-4-15,71.9,61.9,48.8,0.0,0.0,0.0,0,0,100,0.00,0.00,17,6,20,0.00
2013-4-16,79.9,63.1,55.5,0.0,0.0,0.0,0,0,100,0.00,0.00,22,6,24,0.46
2013-4-17,66.0,58.4,52.1,0.0,0.0,0.0,0,0,100,0.00,0.00,17,6,19,0.08
2013-4-18,86.6,71.3,58.1,0.0,0.0,0.0,0,0,100,0.00,0.00,25,8,26,0.00
2013-4-19,73.1,52.4,39.3,0.0,0.0,0.0,0,0,100,0.00,0.00,26,10,30,0.72
2013-4-20,46.5,39.3,33.3,0.0,0.0,0.0,0,0,100,0.00,0.00,21,6,27,0.00
2013-4-21,55.0,41.2,26.3,0.0,0.0,0.0,0,0,100,0.00,0.00,13,4,13,0.00
2013-4-22,69.7,52.9,35.4,0.0,0.0,0.0,0,0,100,0.00,0.00,12,4,12,0.00
2013-4-23,73.4,60.1,44.3,0.0,0.0,0.0,0,0,100,0.00,0.00,22,6,22,0.00
2013-4-24,62.7,50.9,33.8,0.0,0.0,0.0,0,0,100,0.00,0.00,23,7,25,0.58
2013-4-25,56.1,43.9,32.0,0.0,0.0,0.0,0,0,100,0.00,0.00,21,5,21,0.00
2013-4-26,63.5,48.0,31.3,0.0,0.0,0.0,0,0,100,0.00,0.00,10,2,10,0.00
2013-4-27,73.8,57.5,40.2,0.0,0.0,0.0,0,0,100,0.00,0.00,13,4,14,0.00
2013-4-28,63.4,57.0,52.4,0.0,0.0,0.0,0,0,100,0.00,0.00,11,4,12,0.54
2013-4-29,68.1,58.8,53.3,0.0,0.0,0.0,0,0,100,0.00,0.00,11,3,12,0.02
2013-4-30,77.4,62.6,46.4,0.0,0.0,0.0,0,0,100,0.00,0.00,12,3,12,0.00
2013-5-1,82.1,68.0,55.1,0.0,0.0,0.0,0,0,100,0.00,0.00,12,5,12,0.00
2013-5-2,78.6,66.8,55.6,0.0,0.0,0.0,0,0,100,0.00,0.00,12,4,13,0.00
2013-5-3,78.3,67.0,55.5,0.0,0.0,0.0,0,0,100,0.00,0.00,17,6,19,0.00
2013-5-4,73.1,61.9,52.8,0.0,0.0,0.0,0,0,100,0.00,0.00,18,7,20,0.00
2013-5-5,73.6,62.3,50.3,0.0,0.0,0.0,0,0,100,0.00,0.00,18,6,19,0.00
2013-5-6,69.2,60.4,54.5,0.0,0.0,0.0,0,0,100,0.00,0.00,12,5,12,0.02
2013-5-7,74.1,61.5,53.7,0.0,0.0,0.0,0,0,100,0.00,0.00,12,4,12,0.02
2013-5-8,73.3,62.5,53.6,0.0,0.0,0.0,0,0,100,0.00,0.00,12,2,12,0.00
2013-5-9,82.5,66.9,49.8,0.0,0.0,0.0,0,0,100,0.00,0.00,13,2,14,0.00
2013-5-10,75.5,64.2,58.2,0.0,0.0,0.0,0,0,100,0.00,0.00,25,5,35,0.52
2013-5-11,60.7,53.1,43.8,0.0,0.0,0.0,0,0,100,0.00,0.00,19,5,22,0.34
2013-5-12,53.4,45.5,35.7,0.0,0.0,0.0,0,0,100,0.00,0.00,23,6,26,0.00
2013-5-13,58.4,46.0,34.2,0.0,0.0,0.0,0,0,100,0.00,0.00,18,3,18,0.00
2013-5-14,75.8,57.1,36.8,0.0,0.0,0.0,0,0,100,0.00,0.00,21,5,23,0.00
2013-5-15,88.1,76.2,63.2,0.0,0.0,0.0,0,0,100,0.00,0.00,24,7,24,0.00
2013-5-16,79.6,70.7,62.4,0.0,0.0,0.0,0,0,100,0.00,0.00,14,3,14,0.12
2013-5-17,81.7,69.2,60.5,0.0,0.0,0.0,0,0,100,0.00,0.00,12,3,12,0.00
2013-5-18,81.8,68.3,59.6,0.0,0.0,0.0,0,0,100,0.00,0.00,10,4,10,0.00
2013-5-19,84.0,72.1,59.2,0.0,0.0,0.0,0,0,100,0.00,0.00,12,3,12,0.00
2013-5-20,89.4,74.3,61.9,0.0,0.0,0.0,0,0,100,0.00,0.00,16,4,16,0.00
2013-5-21,89.8,76.9,68.4,0.0,0.0,0.0,0,0,100,0.00,0.00,21,6,23,0.00
2013-5-22,82.8,73.2,63.0,0.0,0.0,0.0,0,0,100,0.00,0.00,22,7,23,0.02
2013-5-23,76.7,63.4,47.1,0.0,0.0,0.0,0,0,100,0.00,0.00,26,7,27,0.04
2013-5-24,56.3,48.2,41.0,0.0,0.0,0.0,0,0,100,0.00,0.00,23,8,26,0.00
2013-5-25,64.2,50.4,34.4,0.0,0.0,0.0,0,0,100,0.00,0.00,16,3,17,0.00
2013-5-26,72.4,55.8,37.4,0.0,0.0,0.0,0,0,100,0.00,0.00,11,2,11,0.00
2013-5-27,70.1,57.6,49.2,0.0,0.0,0.0,0,0,100,0.00,0.00,18,5,19,0.10
2013-5-28,87.5,73.9,59.7,0.0,0.0,0.0,0,0,100,0.00,0.00,24,7,25,0.00
2013-5-29,90.0,78.1,67.0,0.0,0.0,0.0,0,0,100,0.00,0.00,22,7,23,0.00
2013-5-30,92.3,78.6,63.5,0.0,0.0,0.0,0,0,100,0.00,0.00,15,4,15,0.00
2013-5-31,89.2,76.0,65.0,0.0,0.0,0.0,0,0,100,0.00,0.00,27,6,35,0.00
2013-6-1,86.8,75.5,64.8,0.0,0.0,0.0,0,0,100,0.00,0.00,30,8,30,0.04
2013-6-2,78.8,70.6,64.1,0.0,0.0,0.0,0,0,100,0.00,0.00,15,5,16,0.04
2013-6-3,68.8,60.8,50.5,0.0,0.0,0.0,0,0,100,0.00,0.00,14,5,15,0.00
2013-6-4,76.1,61.5,42.5,0.0,0.0,0.0,0,0,100,0.00,0.00,12,3,12,0.00
2013-6-5,84.0,68.5,53.6,0.0,0.0,0.0,0,0,100,0.00,0.00,11,4,11,0.00
2013-6-6,71.6,65.5,59.2,0.0,0.0,0.0,0,0,100,0.00,0.00,14,4,14,0.28
2013-6-7,70.5,60.0,54.5,0.0,0.0,0.0,0,0,100,0.00,0.00,14,5,15,0.00
2013-6-8,79.5,65.0,51.6,0.0,0.0,0.0,0,0,100,0.00,0.00,11,2,12,0.00
2013-6-9,86.2,73.7,63.2,0.0,0.0,0.0,0,0,100,0.00,0.00,12,4,12,0.00
2013-6-10,80.9,69.0,64.0,0.0,0.0,0.0,0,0,100,0.00,0.00,20,4,20,0.48
2013-6-11,84.9,72.2,61.1,0.0,0.0,0.0,0,0,100,0.00,0.00,16,4,17,0.00
2013-6-12,91.2,79.7,65.8,0.0,0.0,0.0,0,0,100,0.00,0.00,15,4,15,0.00
2013-6-13,79.2,69.2,63.2,0.0,0.0,0.0,0,0,100,0.00,0.00,28,8,31,0.38
2013-6-14,76.8,66.9,57.3,0.0,0.0,0.0,0,0,100,0.00,0.00,17,6,17,0.00
2013-6-15,84.4,69.1,50.7,0.0,0.0,0.0,0,0,100,0.00,0.00,12,2,12,0.00
2013-6-16,79.7,71.9,67.2,0.0,0.0,0.0,0,0,100,0.00,0.00,23,5,23,0.04
2013-6-17,87.6,74.3,64.5,0.0,0.0,0.0,0,0,100,0.00,0.00,15,3,15,0.00
2013-6-18,83.1,71.2,60.8,0.0,0.0,0.0,0,0,100,0.00,0.00,16,4,17,0.04
2013-6-19,78.3,66.4,52.7,0.0,0.0,0.0,0,0,100,0.00,0.00,12,2,12,0.00
2013-6-20,85.4,70.6,53.8,0.0,0.0,0.0,0,0,100,0.00,0.00,8,3,8,0.00
2013-6-21,89.8,75.5,56.5,0.0,0.0,0.0,0,0,100,0.00,0.00,13,3,13,0.00
2013-6-22,93.7,79.2,62.8,0.0,0.0,0.0,0,0,100,0.00,0.00,16,3,16,0.00
2013-6-23,92.9,79.3,62.8,0.0,0.0,0.0,0,0,100,0.00,0.00,16,4,16,0.00
2013-6-24,90.7,77.9,61.8,0.0,0.0,0.0,0,0,100,0.00,0.00,21,4,27,0.00
2013-6-25,100.2,77.7,67.1,0.0,0.0,0.0,0,0,100,0.00,0.00,23,4,23,0.38
2013-6-26,90.4,78.4,67.4,0.0,0.0,0.0,0,0,100,0.00,0.00,16,5,16,0.00
2013-6-27,85.9,74.1,66.4,0.0,0.0,0.0,0,0,100,0.00,0.00,19,4,20,0.00
2013-6-28,83.4,73.5,62.6,0.0,0.0,0.0,0,0,100,0.00,0.00,25,4,29,0.00
2013-6-29,85.8,67.6,59.3,0.0,0.0,0.0,0,0,100,0.00,0.00,19,3,19,0.00
2013-6-30,82.6,67.7,60.6,0.0,0.0,0.0,0,0,100,0.00,0.00,12,3,13,0.00
2013-7-1,84.9,71.2,63.3,0.0,0.0,0.0,0,0,100,0.00,0.00,17,3,18,0.10
2013-7-2,87.0,74.2,65.3,0.0,0.0,0.0,0,0,100,0.00,0.00,12,3,12,0.00
2013-7-3,87.8,76.1,66.3,0.0,0.0,0.0,0,0,100,0.00,0.00,13,3,14,0.00
2013-7-4,79.6,72.6,69.1,0.0,0.0,0.0,0,0,100,0.00,0.00,12,4,12,0.14
2013-7-5,82.7,70.9,66.7,0.0,0.0,0.0,0,0,100,0.00,0.00,10,3,10,0.62
2013-7-6,88.0,75.4,68.1,0.0,0.0,0.0,0,0,100,0.00,0.00,20,4,20,0.06
2013-7-7,84.3,72.9,63.0,0.0,0.0,0.0,0,0,100,0.00,0.00,19,4,19,0.04
2013-7-8,83.8,72.3,62.6,0.0,0.0,0.0,0,0,100,0.00,0.00,18,3,18,0.66
2013-7-9,91.2,75.3,69.3,0.0,0.0,0.0,0,0,100,0.00,0.00,21,4,21,0.74
2013-7-10,91.5,75.0,64.2,0.0,0.0,0.0,0,0,100,0.00,0.00,41,5,43,0.80
2013-7-11,80.0,70.1,59.8,0.0,0.0,0.0,0,0,100,0.00,0.00,17,3,18,0.00
2013-7-12,81.5,69.1,56.4,0.0,0.0,0.0,0,0,100,0.00,0.00,17,4,18,0.00
2013-7-13,86.9,73.7,60.1,0.0,0.0,0.0,0,0,100,0.00,0.00,14,4,14,0.00
2013-7-14,92.5,80.3,69.1,0.0,0.0,0.0,0,0,100,0.00,0.00,14,4,14,0.00
2013-7-15,94.0,83.2,72.2,0.0,0.0,0.0,0,0,100,0.00,0.00,9,2,10,0.00
2013-7-16,96.7,82.8,69.1,0.0,0.0,0.0,0,0,100,0.00,0.00,8,2,9,0.00
2013-7-17,92.2,82.9,71.4,0.0,0.0,0.0,0,0,100,0.00,0.00,12,3,12,0.00
2013-7-18,93.8,82.0,72.2,0.0,0.0,0.0,0,0,100,0.00,0.00,16,2,18,0.04
2013-7-19,91.7,80.3,71.8,0.0,0.0,0.0,0,0,100,0.00,0.00,22,4,22,0.28
2013-7-20,82.2,73.4,68.6,0.0,0.0,0.0,0,0,100,0.00,0.00,14,3,15,0.30
2013-7-21,86.8,75.9,67.0,0.0,0.0,0.0,0,0,100,0.00,0.00,8,2,9,0.00
2013-7-22,77.7,71.4,66.1,0.0,0.0,0.0,0,0,100,0.00,0.00,9,3,11,1.32
2013-7-23,88.2,76.4,67.9,0.0,0.0,0.0,0,0,100,0.00,0.00,16,4,17,0.02
2013-7-24,77.7,68.5,57.4,0.0,0.0,0.0,0,0,100,0.00,0.00,14,4,15,0.00
2013-7-25,78.0,65.7,52.2,0.0,0.0,0.0,0,0,100,0.00,0.00,12,3,12,0.00
2013-7-26,83.5,70.0,54.4,0.0,0.0,0.0,0,0,100,0.00,0.00,12,3,12,0.00
2013-7-27,75.5,67.2,62.9,0.0,0.0,0.0,0,0,100,0.00,0.00,16,4,16,0.24
2013-7-28,74.5,64.3,52.0,0.0,0.0,0.0,0,0,100,0.00,0.00,17,4,18,0.00
2013-7-29,76.1,65.5,53.1,0.0,0.0,0.0,0,0,100,0.00,0.00,16,3,17,0.00
2013-7-30,83.0,68.6,54.7,0.0,0.0,0.0,0,0,100,0.00,0.00,8,2,9,0.00
2013-7-31,77.0,69.0,64.5,0.0,0.0,0.0,0,0,100,0.00,0.00,12,3,12,0.08
2013-8-1,83.6,71.6,64.3,0.0,0.0,0.0,0,0,100,0.00,0.00,14,4,15,0.10
2013-8-2,81.0,70.4,57.1,0.0,0.0,0.0,0,0,100,0.00,0.00,13,3,14,0.00
2013-8-3,80.2,69.8,60.5,0.0,0.0,0.0,0,0,100,0.00,0.00,14,3,15,0.26
2013-8-4,75.2,65.9,56.0,0.0,0.0,0.0,0,0,100,0.00,0.00,15,4,16,0.00
2013-8-5,79.9,65.9,50.9,0.0,0.0,0.0,0,0,100,0.00,0.00,7,2,7,0.00
2013-8-6,86.9,72.3,61.6,0.0,0.0,0.0,0,0,100,0.00,0.00,12,3,13,0.00
2013-8-7,89.5,76.1,65.1,0.0,0.0,0.0,0,0,100,0.00,0.00,14,3,14,0.12
2013-8-8,87.2,73.6,67.2,0.0,0.0,0.0,0,0,100,0.00,0.00,26,2,29,1.36
2013-8-9,79.7,70.5,65.4,0.0,0.0,0.0,0,0,100,0.00,0.00,13,2,15,0.32
2013-8-10,87.2,74.0,62.7,0.0,0.0,0.0,0,0,100,0.00,0.00,10,2,10,0.00
2013-8-11,87.5,73.3,62.9,0.0,0.0,0.0,0,0,100,0.00,0.00,12,2,12,0.00
2013-8-12,88.4,74.2,59.7,0.0,0.0,0.0,0,0,100,0.00,0.00,11,3,12,0.00
2013-8-13,75.7,67.9,53.5,0.0,0.0,0.0,0,0,100,0.00,0.00,20,6,20,0.02
2013-8-14,70.1,58.8,49.3,0.0,0.0,0.0,0,0,100,0.00,0.00,12,4,13,0.00
2013-8-15,76.9,62.2,48.1,0.0,0.0,0.0,0,0,100,0.00,0.00,8,2,9,0.00
2013-8-16,80.3,65.3,52.1,0.0,0.0,0.0,0,0,100,0.00,0.00,10,2,11,0.00
2013-8-17,84.0,68.5,57.2,0.0,0.0,0.0,0,0,100,0.00,0.00,11,4,12,0.00
2013-8-18,81.9,66.8,56.2,0.0,0.0,0.0,0,0,100,0.00,0.00,9,2,10,0.00
2013-8-19,86.7,71.1,58.8,0.0,0.0,0.0,0,0,100,0.00,0.00,10,2,10,0.00
2013-8-20,88.2,71.3,56.9,0.0,0.0,0.0,0,0,100,0.00,0.00,8,2,8,0.00
2013-8-21,88.9,73.0,61.0,0.0,0.0,0.0,0,0,100,0.00,0.00,11,3,11,0.00
2013-8-22,87.0,74.4,63.0,0.0,0.0,0.0,0,0,100,0.00,0.00,18,4,18,0.00
2013-8-23,86.3,73.3,63.7,0.0,0.0,0.0,0,0,100,0.00,0.00,13,4,13,0.34
2013-8-24,85.4,70.8,59.3,0.0,0.0,0.0,0,0,100,0.00,0.00,10,4,11,0.00
2013-8-25,88.2,73.3,57.4,0.0,0.0,0.0,0,0,100,0.00,0.00,15,3,15,0.00
2013-8-26,90.2,75.1,59.8,0.0,0.0,0.0,0,0,100,0.00,0.00,17,3,17,0.00
2013-8-27,88.7,76.7,68.6,0.0,0.0,0.0,0,0,100,0.00,0.00,12,3,12,0.00
2013-8-28,88.6,78.4,69.5,0.0,0.0,0.0,0,0,100,0.00,0.00,15,4,16,0.00
2013-8-29,88.0,74.6,67.0,0.0,0.0,0.0,0,0,100,0.00,0.00,9,2,10,0.00
2013-8-30,91.8,76.6,63.5,0.0,0.0,0.0,0,0,100,0.00,0.00,14,3,16,0.00
2013-8-31,89.4,76.6,68.9,0.0,0.0,0.0,0,0,100,0.00,0.00,20,4,20,0.64
2013-9-1,88.0,76.5,66.1,0.0,0.0,0.0,0,0,100,0.00,0.00,14,3,14,0.02
2013-9-2,84.5,74.3,66.2,0.0,0.0,0.0,0,0,100,0.00,0.00,16,4,18,0.00
2013-9-3,68.4,60.9,51.7,0.0,0.0,0.0,0,0,100,0.00,0.00,16,5,17,0.00
2013-9-4,82.3,64.9,48.5,0.0,0.0,0.0,0,0,100,0.00,0.00,12,2,12,0.00
2013-9-5,80.4,65.9,54.4,0.0,0.0,0.0,0,0,100,0.00,0.00,14,3,15,0.00
2013-9-6,78.1,61.0,45.6,0.0,0.0,0.0,0,0,100,0.00,0.00,8,2,9,0.00
2013-9-7,87.7,67.3,48.5,0.0,0.0,0.0,0,0,100,0.00,0.00,11,3,11,0.00
2013-9-8,84.9,73.3,63.5,0.0,0.0,0.0,0,0,100,0.00,0.00,12,3,13,0.00
2013-9-9,91.3,75.4,61.1,0.0,0.0,0.0,0,0,100,0.00,0.00,15,5,15,0.00
2013-9-10,96.0,82.0,71.3,0.0,0.0,0.0,0,0,100,0.00,0.00,16,6,17,0.00
2013-9-11,92.2,78.3,70.7,0.0,0.0,0.0,0,0,100,0.00,0.00,20,4,20,0.04
2013-9-12,76.8,70.3,60.7,0.0,0.0,0.0,0,0,100,0.00,0.00,21,4,21,0.34
2013-9-13,63.8,56.9,48.5,0.0,0.0,0.0,0,0,100,0.00,0.00,19,8,21,0.00
2013-9-14,69.6,54.1,40.1,0.0,0.0,0.0,0,0,100,0.00,0.00,11,2,11,0.00
2013-9-15,77.0,60.1,42.6,0.0,0.0,0.0,0,0,100,0.00,0.00,15,2,15,0.00
2013-9-16,72.6,61.1,52.2,0.0,0.0,0.0,0,0,100,0.00,0.00,13,3,13,0.10
2013-9-17,74.1,58.5,46.1,0.0,0.0,0.0,0,0,100,0.00,0.00,11,4,12,0.00
2013-9-18,80.4,66.8,54.8,0.0,0.0,0.0,0,0,100,0.00,0.00,9,4,10,0.00
2013-9-19,74.0,66.9,63.5,0.0,0.0,0.0,0,0,100,0.00,0.00,8,3,9,0.00
2013-9-20,88.9,73.8,64.0,0.0,0.0,0.0,0,0,100,0.00,0.00,16,4,17,0.00
2013-9-21,70.9,64.7,55.2,0.0,0.0,0.0,0,0,100,0.00,0.00,21,4,23,1.12
2013-9-22,65.5,54.7,46.6,0.0,0.0,0.0,0,0,100,0.00,0.00,16,5,16,0.00
2013-9-23,64.3,51.9,41.9,0.0,0.0,0.0,0,0,100,0.00,0.00,11,3,11,0.00
2013-9-24,69.9,52.3,38.2,0.0,0.0,0.0,0,0,100,0.00,0.00,10,2,10,0.00
2013-9-25,71.8,56.7,44.8,0.0,0.0,0.0,0,0,100,0.00,0.00,8,2,9,0.00
2013-9-26,79.0,62.5,49.2,0.0,0.0,0.0,0,0,100,0.00,0.00,7,2,8,0.00
2013-9-27,77.7,61.0,45.0,0.0,0.0,0.0,0,0,100,0.00,0.00,12,2,12,0.00
2013-9-28,81.0,64.3,49.2,0.0,0.0,0.0,0,0,100,0.00,0.00,10,3,10,0.00
2013-9-29,78.0,63.7,53.1,0.0,0.0,0.0,0,0,100,0.00,0.00,12,3,13,0.00
2013-9-30,75.4,64.4,59.8,0.0,0.0,0.0,0,0,100,0.00,0.00,10,2,10,0.02
2013-10-1,81.9,65.9,55.0,0.0,0.0,0.0,0,0,100,0.00,0.00,16,3,16,0.00
2013-10-2,84.5,68.1,57.3,0.0,0.0,0.0,0,0,100,0.00,0.00,9,2,9,0.00
2013-10-3,80.8,69.9,62.8,0.0,0.0,0.0,0,0,100,0.00,0.00,12,3,13,0.12
2013-10-4,84.5,69.1,61.5,0.0,0.0,0.0,0,0,100,0.00,0.00,12,3,12,0.48
2013-10-5,84.7,71.5,64.2,0.0,0.0,0.0,0,0,100,0.00,0.00,14,4,16,0.48
2013-10-6,82.3,68.4,52.1,0.0,0.0,0.0,0,0,100,0.00,0.00,26,6,31,1.38
2013-10-7,61.4,52.2,43.4,0.0,0.0,0.0,0,0,100,0.00,0.00,14,4,17,0.28
2013-10-8,68.0,52.3,40.3,0.0,0.0,0.0,0,0,100,0.00,0.00,12,2,12,0.00
2013-10-9,71.0,55.4,45.6,0.0,0.0,0.0,0,0,100,0.00,0.00,10,4,10,0.00
2013-10-10,77.2,57.1,42.7,0.0,0.0,0.0,0,0,100,0.00,0.00,7,2,8,0.00
2013-10-11,78.6,60.9,45.6,0.0,0.0,0.0,0,0,100,0.00,0.00,11,3,11,0.00
2013-10-12,77.8,62.7,51.2,0.0,0.0,0.0,0,0,100,0.00,0.00,8,2,8,0.00
2013-10-13,72.7,61.9,54.7,0.0,0.0,0.0,0,0,100,0.00,0.00,14,3,15,0.00
2013-10-14,72.2,57.7,46.6,0.0,0.0,0.0,0,0,100,0.00,0.00,13,3,15,0.00
2013-10-15,70.6,58.8,47.3,0.0,0.0,0.0,0,0,100,0.00,0.00,11,4,12,0.00
2013-10-16,65.6,61.9,51.9,0.0,0.0,0.0,0,0,100,0.00,0.00,16,4,16,0.22
2013-10-17,55.0,47.8,39.3,0.0,0.0,0.0,0,0,100,0.00,0.00,14,3,15,0.12
2013-10-18,64.7,50.0,39.4,0.0,0.0,0.0,0,0,100,0.00,0.00,11,4,12,0.00
2013-10-19,50.5,44.6,37.0,0.0,0.0,0.0,0,0,100,0.00,0.00,16,3,18,0.14
2013-10-20,62.0,46.2,34.5,0.0,0.0,0.0,0,0,100,0.00,0.00,18,5,18,0.00
2013-10-21,67.1,53.5,41.5,0.0,0.0,0.0,0,0,100,0.00,0.00,23,6,25,0.02
2013-10-22,53.0,43.1,32.0,0.0,0.0,0.0,0,0,100,0.00,0.00,23,3,25,0.10
2013-10-23,45.3,38.7,33.0,0.0,0.0,0.0,0,0,100,0.00,0.00,20,4,22,0.44
2013-10-24,45.7,36.6,29.8,0.0,0.0,0.0,0,0,100,0.00,0.00,18,3,20,0.00
2013-10-25,48.3,36.4,26.6,0.0,0.0,0.0,0,0,100,0.00,0.00,16,3,16,0.00
2013-10-26,47.4,38.9,29.6,0.0,0.0,0.0,0,0,100,0.00,0.00,25,6,26,0.02
2013-10-27,56.4,41.3,29.6,0.0,0.0,0.0,0,0,100,0.00,0.00,10,2,10,0.00
2013-10-28,63.0,44.2,29.8,0.0,0.0,0.0,0,0,100,0.00,0.00,6,1,7,0.00
2013-10-29,61.8,48.1,36.5,0.0,0.0,0.0,0,0,100,0.00,0.00,8,3,8,0.00
2013-10-30,66.5,56.1,48.2,0.0,0.0,0.0,0,0,100,0.00,0.00,9,3,9,0.00
2013-10-31,65.4,61.2,58.2,0.0,0.0,0.0,0,0,100,0.00,0.00,26,8,30,0.62
2013-11-1,62.4,55.1,49.1,0.0,0.0,0.0,0,0,100,0.00,0.00,28,7,29,0.46
2013-11-2,51.9,47.7,41.9,0.0,0.0,0.0,0,0,100,0.00,0.00,18,5,18,0.02
2013-11-3,55.0,43.8,38.2,0.0,0.0,0.0,0,0,100,0.00,0.00,10,3,11,0.00
2013-11-4,55.7,43.6,33.1,0.0,0.0,0.0,0,0,100,0.00,0.00,14,6,15,0.00
2013-11-5,65.1,52.5,46.3,0.0,0.0,0.0,0,0,100,0.00,0.00,9,4,10,0.00
2013-11-6,67.9,55.9,43.4,0.0,0.0,0.0,0,0,100,0.00,0.00,24,6,26,0.50
2013-11-7,49.4,41.9,34.7,0.0,0.0,0.0,0,0,100,0.00,0.00,22,6,23,0.14
2013-11-8,46.0,36.8,29.4,0.0,0.0,0.0,0,0,100,0.00,0.00,16,2,16,0.00
2013-11-9,58.7,46.3,31.0,0.0,0.0,0.0,0,0,100,0.00,0.00,23,8,26,0.06
2013-11-10,48.0,41.0,29.1,0.0,0.0,0.0,0,0,100,0.00,0.00,28,5,28,0.48
2013-11-11,50.1,39.4,25.8,0.0,0.0,0.0,0,0,100,0.00,0.00,19,6,20,0.02
2013-11-12,32.3,27.3,23.3,0.0,0.0,0.0,0,0,100,0.00,0.00,21,7,21,0.02
2013-11-13,38.2,28.1,18.0,0.0,0.0,0.0,0,0,100,0.00,0.00,16,4,16,0.00
2013-11-14,50.9,37.2,26.5,0.0,0.0,0.0,0,0,100,0.00,0.00,21,7,22,0.00
2013-11-15,54.0,44.9,37.7,0.0,0.0,0.0,0,0,100,0.00,0.00,20,6,21,0.00
2013-11-16,60.1,52.3,44.2,0.0,0.0,0.0,0,0,100,0.00,0.00,16,5,16,0.00
2013-11-17,60.8,57.7,50.2,0.0,0.0,0.0,0,0,100,0.00,0.00,32,10,33,2.00
2013-11-18,50.2,43.7,33.5,0.0,0.0,0.0,0,0,100,0.00,0.00,26,8,30,1.42
2013-11-19,42.6,34.6,26.9,0.0,0.0,0.0,0,0,100,0.00,0.00,16,4,16,0.00
2013-11-20,48.0,36.5,28.2,0.0,0.0,0.0,0,0,100,0.00,0.00,17,6,17,0.00
2013-11-21,58.3,46.9,37.2,0.0,0.0,0.0,0,0,100,0.00,0.00,10,4,10,0.14
2013-11-22,51.8,46.3,34.6,0.0,0.0,0.0,0,0,100,0.00,0.00,23,6,26,0.26
2013-11-23,37.1,28.5,18.6,0.0,0.0,0.0,0,0,100,0.00,0.00,29,6,29,0.00
2013-11-24,26.1,18.4,13.2,0.0,0.0,0.0,0,0,100,0.00,0.00,17,4,18,0.00
2013-11-25,36.2,26.4,14.6,0.0,0.0,0.0,0,0,100,0.00,0.00,18,4,21,0.00
2013-11-26,36.3,31.8,29.1,0.0,0.0,0.0,0,0,100,0.00,0.00,11,2,11,0.02
2013-11-27,30.2,26.7,23.6,0.0,0.0,0.0,0,0,100,0.00,0.00,26,6,26,0.02
2013-11-28,30.8,26.6,20.8,0.0,0.0,0.0,0,0,100,0.00,0.00,13,3,13,0.00
2013-11-29,37.4,27.9,17.7,0.0,0.0,0.0,0,0,100,0.00,0.00,8,2,8,0.00
2013-11-30,43.9,33.1,24.9,0.0,0.0,0.0,0,0,100,0.00,0.00,13,4,13,0.00
2013-12-1,46.7,39.4,32.5,0.0,0.0,0.0,0,0,100,0.00,0.00,12,3,12,0.00
2013-12-2,48.4,39.0,33.0,0.0,0.0,0.0,0,0,100,0.00,0.00,9,2,9,0.04
2013-12-3,55.2,43.6,35.3,0.0,0.0,0.0,0,0,100,0.00,0.00,10,4,11,0.02
2013-12-4,60.5,53.0,44.0,0.0,0.0,0.0,0,0,100,0.00,0.00,15,4,16,0.00
2013-12-5,62.8,50.5,31.7,0.0,0.0,0.0,0,0,100,0.00,0.00,22,7,23,0.26
2013-12-6,32.0,28.7,25.0,0.0,0.0,0.0,0,0,100,0.00,0.00,16,6,17,0.00
2013-12-7,26.0,21.9,13.6,0.0,0.0,0.0,0,0,100,0.00,0.00,12,4,12,0.00
2013-12-8,30.8,24.0,15.4,0.0,0.0,0.0,0,0,100,0.00,0.00,17,6,17,0.00
2013-12-9,32.9,30.2,24.6,0.0,0.0,0.0,0,0,100,0.00,0.00,17,5,20,0.00
2013-12-10,26.3,21.7,16.9,0.0,0.0,0.0,0,0,100,0.00,0.00,20,4,22,0.00
2013-12-11,32.8,21.7,12.2,0.0,0.0,0.0,0,0,100,0.00,0.00,18,4,21,0.00
2013-12-12,20.8,15.2,9.4,0.0,0.0,0.0,0,0,100,0.00,0.00,17,3,18,0.00
2013-12-13,36.3,24.9,14.9,0.0,0.0,0.0,0,0,100,0.00,0.00,12,3,12,0.00
2013-12-14,36.2,33.2,30.1,0.0,0.0,0.0,0,0,100,0.00,0.00,15,5,15,0.00
2013-12-15,32.8,25.2,22.1,0.0,0.0,0.0,0,0,100,0.00,0.00,21,6,24,0.00
2013-12-16,29.3,23.7,19.4,0.0,0.0,0.0,0,0,100,0.00,0.00,16,3,16,0.00
2013-12-17,32.9,28.7,25.9,0.0,0.0,0.0,0,0,100,0.00,0.00,18,4,20,0.00
2013-12-18,30.4,26.2,21.6,0.0,0.0,0.0,0,0,100,0.00,0.00,16,5,16,0.00
2013-12-19,49.1,40.4,30.1,0.0,0.0,0.0,0,0,100,0.00,0.00,18,6,18,0.00
2013-12-20,55.7,51.4,47.3,0.0,0.0,0.0,0,0,100,0.00,0.00,21,8,24,0.00
2013-12-21,66.1,58.4,55.2,0.0,0.0,0.0,0,0,100,0.00,0.00,31,8,34,0.00
2013-12-22,66.0,54.8,41.6,0.0,0.0,0.0,0,0,100,0.00,0.00,30,9,31,0.00
2013-12-23,41.6,32.8,26.8,0.0,0.0,0.0,0,0,100,0.00,0.00,17,5,20,0.00
2013-12-24,26.7,17.2,9.2,0.0,0.0,0.0,0,0,100,0.00,0.00,15,3,18,0.00
2013-12-25,32.2,22.9,8.9,0.0,0.0,0.0,0,0,100,0.00,0.00,16,4,18,0.00
2013-12-26,36.5,31.4,25.7,0.0,0.0,0.0,0,0,100,0.00,0.00,28,6,28,0.00
2013-12-27,44.9,35.7,29.2,0.0,0.0,0.0,0,0,100,0.00,0.00,19,5,19,0.00
2013-12-28,51.7,40.3,32.1,0.0,0.0,0.0,0,0,100,0.00,0.00,18,6,19,0.00
2013-12-29,41.9,38.9,32.5,0.0,0.0,0.0,0,0,100,0.00,0.00,20,4,22,0.00
2013-12-30,32.5,26.6,23.3,0.0,0.0,0.0,0,0,100,0.00,0.00,23,4,24,0.00
2013-12-31,27.5,23.5,19.1,0.0,0.0,0.0,0,0,100,0.00,0.00,20,4,21,0.00
2014-1-1,42.9,30.5,19.0,0.0,0.0,0.0,0,0,100,0.00,0.00,10,2,10,0.00
2014-1-2,28.7,22.0,9.8,0.0,0.0,0.0,0,0,100,0.00,0.00,27,8,27,0.00